Weather at Eliporto il Melograno

Public forecast

Using degrees Celsius for public forecast. Weather courtesy of forecast.io.

Closest aviation weather report (METAR) to Eliporto il Melograno

Closest report is Gioia Del Colle Air Base, 18.2 nm (33.6 km) WSW.

2024/05/20 05:55 (retrieved 45 minutes ago)

LIBV 200555Z 01002KT 7000 FEW010 18/17 Q1012 RMK FEW VIS MIN 7000 WIND THR32 01003KT WIND THR14 36002KT WHT

Closest aviation forecast (TAF) to Eliporto il Melograno

Closest forecast is Bari Karol Wojtyła Airport, 26.8 nm (49.6 km) WNW.

2024/05/20 06:24 (retrieved 16 minutes ago)

TAF TAF LIBD 200500Z 2006/2106 VRB05KT 8000 SCT010 BECMG 2009/2011 08012KT BECMG 2020/2022 14008KT